Terminal Aerodrome Forecast
Issued by NWS Goodland, KS

Home | Current Version | Previous Version | Text Only | Print | Product List | Glossary On
Versions: 1 2 3 4 5 6 7 8 9 10 11 12
000
FTUS43 KGLD 281720
TAFGLD
TAF
KGLD 281720Z 2818/2918 33015G28KT P6SM SCT250
     FM281900 33025G36KT P6SM SKC
     FM290100 33015G25KT P6SM SKC
     FM290600 34015KT P6SM BKN250=

USA.gov is the U.S. government's official web portal to all federal, state and local government web resources and services.